Time;durP1;ratioP1;P1;durP2;ratioP2;P2;SDS_P1;SDS_P2;PMS_P1;PMS_P2;Temp;Humidity;BMP_temperature;BMP_pressure;BME280_temperature;BME280_humidity;BME280_pressure;Samples;Min_cycle;Max_cycle;Signal;HPM_P1;HPM_P2
2023/12/08 00:00:45;;;;;;;4.53;1.83;;;2.70;99.90;;;;;;5105713;28;20414;-58
2023/12/08 00:03:12;;;;;;;3.70;1.70;;;2.70;99.90;;;;;;5096374;28;20434;-57
2023/12/08 00:05:41;;;;;;;3.35;1.33;;;2.70;99.90;;;;;;5095979;28;20499;-57
2023/12/08 00:08:08;;;;;;;2.57;1.50;;;2.70;99.90;;;;;;5100126;28;20918;-58
2023/12/08 00:10:35;;;;;;;3.78;1.40;;;2.70;99.90;;;;;;5115636;28;20432;-58
2023/12/08 00:13:01;;;;;;;4.60;1.60;;;2.80;99.90;;;;;;5115545;28;20416;-58
2023/12/08 00:15:28;;;;;;;3.38;1.60;;;2.80;99.90;;;;;;5116075;28;20416;-58
2023/12/08 00:17:56;;;;;;;3.22;1.55;;;2.70;99.90;;;;;;5115362;28;20850;-59
2023/12/08 00:20:24;;;;;;;3.55;1.67;;;2.70;99.90;;;;;;5115958;28;20420;-58
2023/12/08 00:22:52;;;;;;;3.20;1.80;;;2.70;99.90;;;;;;5115632;28;20439;-60
2023/12/08 00:25:19;;;;;;;5.65;2.03;;;2.70;99.90;;;;;;5115274;28;20473;-58
2023/12/08 00:27:46;;;;;;;4.30;1.60;;;2.70;99.90;;;;;;5114426;28;20429;-59
2023/12/08 00:30:13;;;;;;;3.47;1.60;;;2.60;99.90;;;;;;5115996;28;20468;-58
2023/12/08 00:32:40;;;;;;;4.70;2.10;;;2.50;99.90;;;;;;5115749;28;20889;-58
2023/12/08 00:35:08;;;;;;;5.05;2.30;;;2.50;99.90;;;;;;5116301;28;20488;-57
2023/12/08 00:37:35;;;;;;;5.35;2.00;;;2.40;99.90;;;;;;5115074;28;20416;-59
2023/12/08 00:40:05;;;;;;;4.90;2.10;;;2.30;1.00;;;;;;5114566;28;20985;-58
2023/12/08 00:42:32;;;;;;;4.78;1.98;;;2.50;1.00;;;;;;5114924;28;20436;-58
2023/12/08 00:44:59;;;;;;;3.83;2.10;;;2.50;99.90;;;;;;5115253;28;20427;-59
2023/12/08 00:47:26;;;;;;;3.78;1.88;;;2.60;99.90;;;;;;5114585;28;20431;-59
2023/12/08 00:49:53;;;;;;;3.25;1.67;;;2.60;99.90;;;;;;5114622;28;20416;-58
2023/12/08 00:52:20;;;;;;;3.83;2.00;;;2.60;99.90;;;;;;5114575;28;20416;-59
2023/12/08 00:54:48;;;;;;;4.15;1.83;;;2.60;99.90;;;;;;5114620;28;20424;-58
2023/12/08 00:57:16;;;;;;;5.30;2.10;;;2.60;99.90;;;;;;5114610;28;20489;-59
2023/12/08 00:59:43;;;;;;;4.00;1.83;;;2.60;99.90;;;;;;5113100;28;20424;-59
2023/12/08 01:02:10;;;;;;;2.95;1.65;;;2.70;99.90;;;;;;5107648;28;20780;-59
2023/12/08 01:04:37;;;;;;;4.50;2.28;;;2.60;99.90;;;;;;5115223;28;20436;-58
2023/12/08 01:07:04;;;;;;;4.00;1.75;;;2.70;99.90;;;;;;5115408;28;20455;-59
2023/12/08 01:09:31;;;;;;;2.50;1.50;;;3.00;99.90;;;;;;5115559;28;20501;-57
2023/12/08 01:11:58;;;;;;;4.55;2.00;;;3.10;99.90;;;;;;5114809;28;20796;-58
2023/12/08 01:14:27;;;;;;;3.72;1.52;;;3.10;99.90;;;;;;5114768;28;20839;-58
2023/12/08 01:16:54;;;;;;;4.20;1.60;;;3.10;99.90;;;;;;5115474;28;20420;-58
2023/12/08 01:19:21;;;;;;;2.77;1.40;;;3.00;99.90;;;;;;5115196;28;20465;-58
2023/12/08 01:21:47;;;;;;;4.60;1.60;;;3.00;99.90;;;;;;5114691;28;20424;-58
2023/12/08 01:24:15;;;;;;;3.80;1.50;;;3.10;99.90;;;;;;5115024;28;20436;-59
2023/12/08 01:26:44;;;;;;;3.30;1.77;;;3.10;99.90;;;;;;5115282;28;20884;-59
2023/12/08 01:29:11;;;;;;;4.00;1.80;;;3.20;99.90;;;;;;5115013;28;20420;-58
2023/12/08 01:31:39;;;;;;;3.50;1.90;;;3.10;99.90;;;;;;5115438;28;20826;-59
2023/12/08 01:34:07;;;;;;;3.47;1.60;;;3.10;99.90;;;;;;5114599;28;20408;-60
2023/12/08 01:36:34;;;;;;;2.88;1.30;;;3.10;99.90;;;;;;5115591;28;20492;-57
2023/12/08 01:39:01;;;;;;;4.25;1.50;;;3.00;99.90;;;;;;5113914;28;20424;-58
2023/12/08 01:41:28;;;;;;;2.80;1.30;;;2.90;99.90;;;;;;5113083;28;20492;-59
2023/12/08 01:43:55;;;;;;;2.30;1.10;;;2.90;99.90;;;;;;5112791;28;20481;-59
2023/12/08 01:46:22;;;;;;;2.40;1.30;;;2.90;99.90;;;;;;5114195;28;20420;-61
2023/12/08 01:48:51;;;;;;;2.58;1.20;;;2.90;99.90;;;;;;5114761;28;21021;-58
2023/12/08 01:51:20;;;;;;;2.22;1.30;;;2.80;99.90;;;;;;5114142;28;20518;-59
2023/12/08 01:53:48;;;;;;;4.60;1.20;;;2.80;99.90;;;;;;5117156;28;20412;-58
2023/12/08 01:56:15;;;;;;;2.00;1.10;;;2.80;99.90;;;;;;5118689;28;20420;-57
2023/12/08 01:58:43;;;;;;;2.40;1.13;;;2.80;99.90;;;;;;5118365;28;20420;-58
2023/12/08 02:01:11;;;;;;;2.22;1.20;;;2.80;99.90;;;;;;5103192;28;20848;-56
2023/12/08 02:03:40;;;;;;;2.60;1.30;;;2.80;99.90;;;;;;5096867;28;20479;-58
2023/12/08 02:06:08;;;;;;;2.30;0.93;;;2.80;99.90;;;;;;5116106;28;20428;-58
2023/12/08 02:08:36;;;;;;;1.60;1.08;;;2.90;99.90;;;;;;5118501;28;20424;-58
2023/12/08 02:11:04;;;;;;;2.08;1.00;;;2.90;99.90;;;;;;5118200;28;20431;-58
2023/12/08 02:13:31;;;;;;;2.90;1.10;;;2.90;99.90;;;;;;5117765;28;20420;-58
2023/12/08 02:16:05;;;;;;;2.80;1.20;;;2.90;99.90;;;;;;5116785;28;20428;-57
2023/12/08 02:18:33;;;;;;;2.45;1.10;;;3.00;99.90;;;;;;5118372;28;20438;-58
2023/12/08 02:21:02;;;;;;;2.60;1.20;;;3.00;99.90;;;;;;5117714;28;20523;-58
2023/12/08 02:23:31;;;;;;;1.60;1.00;;;3.00;99.90;;;;;;5118109;28;20536;-58
2023/12/08 02:25:59;;;;;;;1.75;0.90;;;3.10;99.90;;;;;;5117674;28;20424;-58
2023/12/08 02:28:26;;;;;;;1.50;0.90;;;3.10;99.90;;;;;;5117354;28;20420;-59
2023/12/08 02:30:57;;;;;;;1.95;0.90;;;3.00;99.90;;;;;;5118111;28;20453;-58
2023/12/08 02:33:29;;;;;;;1.92;1.00;;;3.00;99.90;;;;;;5117480;28;20419;-58
2023/12/08 02:35:57;;;;;;;1.80;0.90;;;2.90;99.90;;;;;;5118490;28;20420;-58
2023/12/08 02:38:25;;;;;;;2.10;1.02;;;2.90;99.90;;;;;;5116792;28;20739;-58
2023/12/08 02:40:52;;;;;;;3.33;1.10;;;3.00;99.90;;;;;;5118102;28;20508;-58
2023/12/08 02:43:21;;;;;;;2.05;0.90;;;3.00;99.90;;;;;;5117416;28;20432;-58
2023/12/08 02:45:48;;;;;;;1.90;0.90;;;3.10;99.90;;;;;;5117917;28;20473;-59
2023/12/08 02:48:15;;;;;;;1.65;1.00;;;3.10;99.90;;;;;;5117191;28;20427;-58
2023/12/08 02:50:43;;;;;;;1.88;0.90;;;3.10;99.90;;;;;;5117517;28;20481;-59
2023/12/08 02:53:10;;;;;;;1.80;1.00;;;3.00;99.90;;;;;;5107115;28;20710;-59
2023/12/08 02:55:37;;;;;;;2.10;1.00;;;3.00;99.90;;;;;;5096695;28;20429;-59
2023/12/08 02:58:04;;;;;;;2.40;1.10;;;3.00;99.90;;;;;;5096842;28;20421;-59
2023/12/08 03:00:32;;;;;;;1.50;0.90;;;3.00;99.90;;;;;;5097726;28;20845;-59
2023/12/08 03:02:59;;;;;;;2.65;1.08;;;3.00;99.90;;;;;;5097057;28;20440;-59
2023/12/08 03:05:26;;;;;;;2.25;1.00;;;3.00;99.90;;;;;;5096276;28;20426;-59
2023/12/08 03:07:53;;;;;;;1.88;0.90;;;3.00;99.90;;;;;;5096963;28;20418;-59
2023/12/08 03:10:20;;;;;;;2.30;0.90;;;3.00;99.90;;;;;;5097230;28;20410;-59
2023/12/08 03:12:47;;;;;;;2.60;0.90;;;3.00;99.90;;;;;;5096832;28;20414;-58
2023/12/08 03:15:14;;;;;;;1.50;0.90;;;3.00;99.90;;;;;;5097273;28;20422;-59
2023/12/08 03:17:43;;;;;;;1.70;1.00;;;3.00;99.90;;;;;;5097151;28;20426;-59
2023/12/08 03:20:11;;;;;;;1.92;1.00;;;3.10;99.90;;;;;;5097494;28;20432;-59
2023/12/08 03:22:38;;;;;;;2.00;1.00;;;3.20;99.90;;;;;;5097754;28;20429;-60
2023/12/08 03:25:06;;;;;;;1.58;0.90;;;3.20;99.90;;;;;;5098358;28;20429;-60
2023/12/08 03:27:33;;;;;;;1.70;0.90;;;3.20;99.90;;;;;;5109542;28;20422;-59
2023/12/08 03:30:00;;;;;;;3.10;1.10;;;3.30;99.90;;;;;;5097001;28;20422;-59
2023/12/08 03:32:27;;;;;;;1.50;0.85;;;3.40;99.90;;;;;;5098164;28;20463;-59
2023/12/08 03:34:54;;;;;;;2.20;0.90;;;3.40;99.90;;;;;;5108946;28;20716;-59
2023/12/08 03:37:21;;;;;;;1.70;1.10;;;3.50;93.50;;;;;;5109736;28;20423;-59
2023/12/08 03:39:48;;;;;;;1.60;0.90;;;3.50;48.90;;;;;;5107247;28;20414;-59
2023/12/08 03:42:15;;;;;;;2.22;1.00;;;3.50;64.50;;;;;;5096221;28;20760;-59
2023/12/08 03:44:42;;;;;;;2.10;0.90;;;3.50;95.20;;;;;;5095994;28;20806;-59
2023/12/08 03:47:09;;;;;;;2.30;1.00;;;3.60;57.00;;;;;;5096211;28;20495;-59
2023/12/08 03:49:36;;;;;;;2.63;0.90;;;3.50;30.50;;;;;;5095744;28;20422;-58
2023/12/08 03:52:05;;;;;;;2.13;0.90;;;3.50;57.50;;;;;;5113442;28;20432;-59
2023/12/08 03:54:32;;;;;;;1.20;0.90;;;3.50;54.30;;;;;;5116628;28;20420;-59
2023/12/08 03:56:59;;;;;;;2.45;0.90;;;3.50;64.00;;;;;;5112255;28;20424;-59
2023/12/08 03:59:26;;;;;;;1.77;0.80;;;3.60;36.30;;;;;;5115669;28;20420;-59
2023/12/08 04:01:53;;;;;;;2.33;1.10;;;3.70;9.10;;;;;;5110653;28;20427;-59
2023/12/08 04:04:21;;;;;;;2.80;0.90;;;3.70;5.20;;;;;;5115311;28;20527;-58
2023/12/08 04:06:48;;;;;;;2.20;0.88;;;3.70;9.90;;;;;;5115726;28;20795;-59
2023/12/08 04:09:16;;;;;;;2.13;0.98;;;3.60;2.70;;;;;;5116043;28;20450;-59
2023/12/08 04:11:43;;;;;;;2.00;0.90;;;3.60;1.00;;;;;;5116111;28;20432;-58
2023/12/08 04:14:10;;;;;;;2.30;0.80;;;3.40;2.50;;;;;;5116206;28;20427;-59
2023/12/08 04:16:37;;;;;;;2.58;1.00;;;3.40;25.90;;;;;;5114838;28;20681;-58
2023/12/08 04:19:05;;;;;;;2.70;0.95;;;3.40;36.20;;;;;;5095746;28;20414;-58
2023/12/08 04:21:32;;;;;;;2.20;0.90;;;3.40;41.60;;;;;;5095741;28;20521;-58
2023/12/08 04:23:59;;;;;;;1.70;0.90;;;3.40;83.20;;;;;;5095601;28;21134;-59
2023/12/08 04:26:27;;;;;;;1.70;0.90;;;3.30;89.30;;;;;;5095207;28;20422;-58
2023/12/08 04:28:54;;;;;;;2.20;0.80;;;3.30;87.50;;;;;;5114047;28;20420;-58
2023/12/08 04:31:21;;;;;;;2.30;0.90;;;3.30;96.20;;;;;;5115886;28;20474;-58
2023/12/08 04:33:48;;;;;;;1.52;0.80;;;3.20;99.90;;;;;;5115398;28;20412;-57
2023/12/08 04:36:15;;;;;;;1.65;0.90;;;3.20;99.90;;;;;;5115901;28;20481;-59
2023/12/08 04:38:42;;;;;;;1.45;0.70;;;3.30;99.90;;;;;;5115734;28;20446;-58
2023/12/08 04:41:09;;;;;;;1.85;0.90;;;3.30;99.90;;;;;;5115834;28;20428;-59
2023/12/08 04:43:38;;;;;;;2.00;0.90;;;3.30;99.90;;;;;;5115184;28;20429;-59
2023/12/08 04:46:05;;;;;;;2.00;0.80;;;3.30;1.00;;;;;;5114801;28;20423;-59
2023/12/08 04:48:32;;;;;;;2.55;1.15;;;3.30;1.00;;;;;;5115325;28;20846;-59
2023/12/08 04:50:59;;;;;;;1.80;0.70;;;3.20;99.90;;;;;;5114929;28;20424;-58
2023/12/08 04:53:26;;;;;;;1.87;0.90;;;3.20;1.00;;;;;;5115075;28;20514;-58
2023/12/08 04:55:53;;;;;;;1.67;0.83;;;3.10;1.00;;;;;;5115575;28;20416;-59
2023/12/08 04:58:21;;;;;;;2.50;1.10;;;3.10;99.90;;;;;;5113871;28;20424;-59
2023/12/08 05:00:51;;;;;;;2.50;0.98;;;3.10;27.10;;;;;;5114840;28;20499;-58
2023/12/08 05:03:18;;;;;;;2.15;0.88;;;3.10;99.90;;;;;;5114923;28;20819;-59
2023/12/08 05:05:45;;;;;;;2.22;1.00;;;3.20;1.00;;;;;;5115164;28;20436;-59
2023/12/08 05:08:12;;;;;;;1.40;0.80;;;3.20;1.00;;;;;;5115581;28;20424;-60
2023/12/08 05:10:39;;;;;;;2.07;1.00;;;3.20;1.00;;;;;;5115306;28;20469;-58
2023/12/08 05:13:06;;;;;;;1.70;1.00;;;3.20;1.00;;;;;;5113269;28;20420;-58
2023/12/08 05:15:33;;;;;;;1.63;1.00;;;3.30;99.90;;;;;;5115267;28;20434;-59
2023/12/08 05:18:01;;;;;;;1.70;1.00;;;3.30;99.90;;;;;;5115175;28;20812;-59
2023/12/08 05:20:28;;;;;;;2.28;1.00;;;3.40;1.00;;;;;;5114945;28;20428;-59
2023/12/08 05:22:55;;;;;;;2.30;1.00;;;3.40;1.00;;;;;;5114268;28;20441;-59
2023/12/08 05:25:22;;;;;;;1.60;0.80;;;3.50;1.00;;;;;;5114615;28;20476;-58
2023/12/08 05:27:49;;;;;;;1.43;0.90;;;3.50;1.00;;;;;;5115791;28;20416;-59
2023/12/08 05:30:16;;;;;;;2.20;0.90;;;3.60;1.00;;;;;;5119346;28;20432;-58
2023/12/08 05:32:43;;;;;;;1.80;1.00;;;3.70;1.00;;;;;;5118333;28;20428;-58
2023/12/08 05:35:12;;;;;;;2.95;1.20;;;3.70;1.00;;;;;;5119402;28;20419;-58
2023/12/08 05:37:39;;;;;;;2.47;1.00;;;3.60;1.00;;;;;;5117851;28;20762;-57
2023/12/08 05:40:07;;;;;;;3.30;1.05;;;3.50;1.00;;;;;;5118511;28;20419;-57
2023/12/08 05:42:34;;;;;;;2.30;1.10;;;3.40;1.00;;;;;;5119169;28;20451;-57
2023/12/08 05:45:01;;;;;;;2.05;1.00;;;3.40;1.00;;;;;;5117060;28;20431;-52
2023/12/08 05:47:28;;;;;;;2.00;0.90;;;3.40;1.00;;;;;;5117443;28;20427;-55
2023/12/08 05:49:55;;;;;;;1.90;0.90;;;3.50;1.00;;;;;;5116800;28;20419;-52
2023/12/08 05:52:24;;;;;;;2.00;1.10;;;3.60;1.00;;;;;;5116140;28;20465;-58
2023/12/08 05:54:50;;;;;;;2.10;1.10;;;3.50;1.00;;;;;;5117405;28;20407;-57
2023/12/08 05:57:18;;;;;;;1.90;0.90;;;3.50;1.00;;;;;;5102068;28;20477;-57
2023/12/08 05:59:44;;;;;;;2.80;1.00;;;3.60;1.00;;;;;;5096739;28;20751;-58
2023/12/08 06:02:11;;;;;;;2.83;1.00;;;3.60;1.00;;;;;;5096680;28;20860;-57
2023/12/08 06:04:38;;;;;;;2.90;1.20;;;3.60;1.00;;;;;;5095471;28;20438;-57
2023/12/08 06:07:05;;;;;;;4.97;1.10;;;3.50;1.00;;;;;;5095351;28;20451;-58
2023/12/08 06:09:34;;;;;;;1.90;1.00;;;3.50;1.00;;;;;;5094789;28;20767;-58
2023/12/08 06:12:01;;;;;;;2.50;1.00;;;3.50;1.00;;;;;;5096511;28;20424;-58
2023/12/08 06:14:28;;;;;;;2.67;1.00;;;3.50;1.00;;;;;;5096453;28;20430;-58
2023/12/08 06:16:55;;;;;;;1.60;1.00;;;3.60;1.00;;;;;;5076919;28;20427;-59
2023/12/08 06:19:22;;;;;;;2.30;1.10;;;3.60;1.00;;;;;;5116543;28;20424;-59
2023/12/08 06:21:49;;;;;;;2.28;0.98;;;3.70;1.00;;;;;;5111618;28;20464;-58
2023/12/08 06:24:17;;;;;;;2.22;1.00;;;3.80;1.00;;;;;;5097425;28;20433;-58
2023/12/08 06:26:45;;;;;;;1.95;1.00;;;3.70;1.00;;;;;;5095882;28;20429;-58
2023/12/08 06:29:12;;;;;;;1.75;1.05;;;3.60;1.00;;;;;;5095558;28;20880;-58
2023/12/08 06:31:39;;;;;;;2.55;1.38;;;3.60;1.00;;;;;;5094255;28;20430;-58
2023/12/08 06:34:06;;;;;;;3.05;0.90;;;3.60;1.00;;;;;;5095676;28;20428;-59
2023/12/08 06:36:33;;;;;;;5.43;2.90;;;3.50;1.00;;;;;;5114744;28;20485;-59
2023/12/08 06:39:00;;;;;;;2.60;1.20;;;3.50;1.00;;;;;;5110179;28;20433;-58
2023/12/08 06:41:27;;;;;;;2.30;1.20;;;3.50;1.00;;;;;;5094679;28;20764;-58
2023/12/08 06:43:55;;;;;;;2.33;1.00;;;3.40;1.00;;;;;;5095135;28;20429;-58
2023/12/08 06:46:22;;;;;;;1.48;1.00;;;3.40;1.00;;;;;;5108997;28;20455;-58
2023/12/08 06:48:49;;;;;;;2.00;1.10;;;3.30;1.00;;;;;;5115916;28;20982;-58
2023/12/08 06:51:16;;;;;;;3.40;1.10;;;3.40;1.00;;;;;;5115366;28;20440;-58
2023/12/08 06:53:43;;;;;;;3.40;1.10;;;3.50;1.00;;;;;;5115786;28;20435;-58
2023/12/08 06:56:11;;;;;;;2.08;1.20;;;3.50;1.00;;;;;;5115918;28;20412;-58
2023/12/08 06:58:38;;;;;;;4.20;1.20;;;3.50;1.00;;;;;;5098847;28;21147;-58
2023/12/08 07:01:06;;;;;;;2.30;1.10;;;3.50;1.00;;;;;;5094944;28;20758;-58
2023/12/08 07:03:33;;;;;;;2.60;1.20;;;3.50;1.00;;;;;;5094193;28;20461;-58
2023/12/08 07:06:00;;;;;;;2.30;1.20;;;3.50;1.00;;;;;;5094704;28;20491;-57
2023/12/08 07:08:27;;;;;;;2.35;1.20;;;3.40;1.00;;;;;;5093372;28;20425;-57
2023/12/08 07:10:54;;;;;;;2.20;1.20;;;3.40;1.00;;;;;;5080145;28;20860;-58
2023/12/08 07:13:21;;;;;;;3.00;1.20;;;3.40;1.00;;;;;;5089523;28;20996;-59
2023/12/08 07:15:48;;;;;;;2.50;1.05;;;3.40;1.00;;;;;;5091002;28;20504;-59
2023/12/08 07:18:17;;;;;;;2.58;1.25;;;3.50;1.00;;;;;;5091615;28;20425;-59
2023/12/08 07:20:45;;;;;;;2.08;1.20;;;3.50;1.00;;;;;;5089770;28;20425;-57
2023/12/08 07:23:12;;;;;;;3.20;1.30;;;3.50;1.00;;;;;;5095687;28;20429;-58
2023/12/08 07:25:39;;;;;;;2.80;1.30;;;3.60;7.30;;;;;;5078112;28;20436;-57
2023/12/08 07:28:06;;;;;;;2.08;1.20;;;3.50;8.90;;;;;;5092551;28;20422;-57
2023/12/08 07:30:33;;;;;;;3.42;1.48;;;3.50;27.70;;;;;;5094320;28;20436;-57
2023/12/08 07:33:00;;;;;;;4.15;1.10;;;3.50;55.90;;;;;;5093814;28;20437;-56
2023/12/08 07:35:29;;;;;;;3.10;1.10;;;3.50;94.20;;;;;;5092467;28;20425;-57
2023/12/08 07:37:56;;;;;;;3.53;1.60;;;3.60;99.90;;;;;;5091641;28;20430;-56
2023/12/08 07:40:23;;;;;;;3.03;1.20;;;3.70;99.90;;;;;;5094768;28;20907;-60
2023/12/08 07:42:50;;;;;;;2.50;1.10;;;3.70;99.90;;;;;;5091764;28;20422;-57
2023/12/08 07:45:17;;;;;;;4.10;1.10;;;3.80;99.90;;;;;;5092269;28;20671;-57
2023/12/08 07:47:45;;;;;;;3.10;1.20;;;3.80;99.90;;;;;;5093208;28;20430;-60
2023/12/08 07:50:11;;;;;;;3.00;1.30;;;3.80;99.90;;;;;;5103650;28;20435;-57
2023/12/08 07:52:41;;;;;;;2.40;1.10;;;3.90;99.90;;;;;;5111385;27;20432;-57
2023/12/08 07:55:09;;;;;;;3.27;1.00;;;3.90;99.90;;;;;;5112140;28;20424;-56
2023/12/08 07:57:37;;;;;;;2.67;1.10;;;4.00;99.90;;;;;;5113153;28;20427;-58
2023/12/08 08:00:06;;;;;;;3.35;1.10;;;4.10;99.90;;;;;;5093701;28;20488;-59
2023/12/08 08:02:33;;;;;;;3.60;1.10;;;4.20;99.90;;;;;;5102000;28;20485;-59
2023/12/08 08:05:00;;;;;;;2.58;1.20;;;4.20;99.90;;;;;;5113203;28;20436;-59
2023/12/08 08:07:27;;;;;;;1.42;0.80;;;4.30;99.90;;;;;;5113473;28;20416;-59
2023/12/08 08:09:56;;;;;;;1.73;1.00;;;4.30;99.90;;;;;;5095390;28;20429;-56
2023/12/08 08:12:23;;;;;;;1.52;1.00;;;4.60;99.90;;;;;;5100795;28;20433;-54
2023/12/08 08:14:50;;;;;;;3.78;1.20;;;4.60;99.90;;;;;;5111963;28;20496;-54
2023/12/08 08:17:17;;;;;;;2.42;1.00;;;4.50;99.90;;;;;;5101242;28;20500;-54
2023/12/08 08:19:44;;;;;;;2.10;0.90;;;4.50;99.90;;;;;;5109822;28;20989;-57
2023/12/08 08:22:11;;;;;;;2.33;1.10;;;4.60;99.90;;;;;;5110140;28;20475;-56
2023/12/08 08:24:38;;;;;;;3.80;1.20;;;4.50;99.90;;;;;;5112029;28;20464;-57
2023/12/08 08:27:08;;;;;;;2.22;1.00;;;4.60;99.90;;;;;;5112586;28;20811;-55
2023/12/08 08:29:35;;;;;;;2.27;1.00;;;4.80;99.90;;;;;;5096251;28;20450;-56
2023/12/08 08:32:02;;;;;;;1.47;0.90;;;4.90;99.90;;;;;;5112355;28;20754;-56
2023/12/08 08:34:30;;;;;;;2.28;1.00;;;5.00;99.90;;;;;;5113883;28;20493;-57
2023/12/08 08:36:57;;;;;;;3.73;1.10;;;4.90;99.90;;;;;;5112456;28;20447;-55
2023/12/08 08:39:24;;;;;;;2.33;1.13;;;4.90;99.90;;;;;;5107350;28;20436;-55
2023/12/08 08:41:52;;;;;;;2.20;0.90;;;4.90;99.90;;;;;;5112204;28;20468;-56
2023/12/08 08:44:20;;;;;;;4.13;1.05;;;4.90;99.90;;;;;;5110600;28;20527;-57
2023/12/08 08:46:47;;;;;;;1.43;0.90;;;5.00;99.90;;;;;;5112389;28;20434;-56
2023/12/08 08:49:14;;;;;;;1.60;1.00;;;5.10;99.90;;;;;;5112268;28;20451;-56
2023/12/08 08:51:41;;;;;;;1.67;0.87;;;5.20;99.90;;;;;;5103907;27;20433;-55
2023/12/08 08:54:08;;;;;;;1.55;0.80;;;5.30;99.90;;;;;;5094643;28;20720;-55
2023/12/08 08:56:35;;;;;;;1.50;0.90;;;5.30;99.90;;;;;;5107520;28;20866;-56
2023/12/08 08:59:03;;;;;;;1.80;1.00;;;5.30;99.90;;;;;;5107485;28;20700;-56
2023/12/08 09:01:32;;;;;;;1.60;0.90;;;5.40;99.90;;;;;;5095334;28;20461;-56
2023/12/08 09:03:59;;;;;;;2.03;0.82;;;5.40;99.90;;;;;;5110317;28;20496;-56
2023/12/08 09:06:26;;;;;;;1.60;0.75;;;5.50;99.90;;;;;;5111197;28;20432;-57
2023/12/08 09:08:52;;;;;;;2.05;0.90;;;5.60;99.90;;;;;;5111823;28;20416;-56
2023/12/08 09:11:19;;;;;;;1.60;0.95;;;5.70;99.90;;;;;;5111276;28;20424;-59
2023/12/08 09:13:47;;;;;;;1.63;0.90;;;5.70;99.90;;;;;;5104373;28;20447;-56
2023/12/08 09:16:14;;;;;;;1.60;0.90;;;5.80;99.90;;;;;;5103562;28;20813;-57
2023/12/08 09:18:42;;;;;;;1.90;0.83;;;5.80;99.90;;;;;;5101584;28;20564;-57
2023/12/08 09:21:09;;;;;;;3.30;0.90;;;5.80;99.90;;;;;;5113927;28;20842;-54
2023/12/08 09:23:36;;;;;;;1.55;0.80;;;5.70;99.90;;;;;;5113430;28;20481;-57
2023/12/08 09:26:03;;;;;;;3.88;1.05;;;5.70;99.90;;;;;;5113113;28;20519;-57
2023/12/08 09:28:30;;;;;;;3.28;1.10;;;5.70;99.90;;;;;;5105155;28;20430;-59
2023/12/08 09:30:58;;;;;;;2.67;0.90;;;5.70;99.90;;;;;;5092431;28;21141;-59
2023/12/08 09:33:25;;;;;;;2.15;1.17;;;5.80;99.90;;;;;;5106159;28;20456;-59
2023/12/08 09:35:55;;;;;;;2.60;0.80;;;5.80;99.90;;;;;;5092930;28;20425;-59
2023/12/08 09:38:22;;;;;;;2.33;1.00;;;5.80;99.90;;;;;;5110112;28;20427;-59
2023/12/08 09:40:49;;;;;;;2.38;0.90;;;5.80;99.90;;;;;;5099560;28;20482;-60
2023/12/08 09:43:19;;;;;;;3.23;0.90;;;5.80;99.90;;;;;;5102971;28;20838;-59
2023/12/08 09:45:48;;;;;;;3.50;0.90;;;5.80;99.90;;;;;;5092308;28;20499;-59
2023/12/08 09:48:17;;;;;;;2.80;0.90;;;5.80;99.90;;;;;;5109410;28;20774;-59
2023/12/08 09:50:44;;;;;;;1.70;0.90;;;5.80;99.90;;;;;;5101701;28;20432;-59
2023/12/08 09:53:12;;;;;;;2.60;0.80;;;5.80;99.90;;;;;;5111637;28;20489;-59
2023/12/08 09:55:39;;;;;;;1.77;0.90;;;5.90;99.90;;;;;;5111833;28;20458;-59
2023/12/08 09:58:08;;;;;;;2.50;1.10;;;5.90;99.90;;;;;;5111292;28;20408;-60
2023/12/08 10:00:37;;;;;;;2.10;0.90;;;5.90;99.90;;;;;;5109700;28;20777;-60
2023/12/08 10:03:04;;;;;;;2.20;0.80;;;6.00;99.90;;;;;;5110353;28;20523;-60
2023/12/08 10:05:31;;;;;;;1.40;0.80;;;6.00;99.90;;;;;;5097411;28;20482;-59
2023/12/08 10:08:00;;;;;;;1.52;0.80;;;6.10;99.90;;;;;;5107736;28;20429;-60
2023/12/08 10:10:30;;;;;;;2.50;0.90;;;6.10;99.90;;;;;;5110020;28;20421;-60
2023/12/08 10:12:58;;;;;;;1.40;0.80;;;6.10;99.90;;;;;;5111399;28;20783;-60
2023/12/08 10:15:26;;;;;;;1.40;0.80;;;6.20;99.90;;;;;;5116145;28;20445;-59
2023/12/08 10:17:53;;;;;;;1.77;0.80;;;6.30;99.90;;;;;;5116506;28;20685;-59
2023/12/08 10:20:21;;;;;;;1.88;0.80;;;6.30;99.90;;;;;;5114020;28;20420;-59
2023/12/08 10:22:50;;;;;;;1.37;0.80;;;6.30;99.90;;;;;;5116327;28;20466;-59
2023/12/08 10:25:19;;;;;;;2.40;1.20;;;6.30;99.90;;;;;;5115124;28;20416;-59
2023/12/08 10:27:50;;;;;;;3.40;0.90;;;6.30;99.90;;;;;;5114249;28;20416;-59
2023/12/08 10:30:18;;;;;;;2.20;0.90;;;6.30;99.90;;;;;;5113082;28;20477;-58
2023/12/08 10:32:46;;;;;;;1.77;0.80;;;6.20;99.90;;;;;;5109820;27;20440;-59
2023/12/08 10:35:13;;;;;;;1.80;0.88;;;6.30;99.90;;;;;;5111780;28;20432;-59
2023/12/08 10:37:41;;;;;;;3.30;0.80;;;6.30;99.90;;;;;;5113416;28;20728;-59
2023/12/08 10:40:09;;;;;;;3.10;0.82;;;6.30;99.90;;;;;;5109626;28;20842;-57
2023/12/08 10:42:37;;;;;;;2.03;0.80;;;6.40;99.90;;;;;;5110846;28;20812;-59
2023/12/08 10:45:10;;;;;;;1.75;1.00;;;6.40;99.90;;;;;;5112222;28;20867;-59
2023/12/08 10:47:40;;;;;;;2.60;0.98;;;6.40;99.90;;;;;;5112310;28;20436;-60
2023/12/08 10:50:09;;;;;;;2.10;0.82;;;6.40;99.90;;;;;;5114161;28;20834;-60
2023/12/08 10:52:38;;;;;;;1.70;0.90;;;6.40;99.90;;;;;;5112652;28;20464;-60
2023/12/08 10:55:06;;;;;;;1.50;0.70;;;6.40;99.90;;;;;;5114943;28;20860;-60
2023/12/08 10:57:33;;;;;;;1.40;0.73;;;6.50;99.90;;;;;;5113286;28;20412;-59
2023/12/08 11:00:11;;;;;;;2.42;0.80;;;6.50;99.90;;;;;;5112705;28;20428;-60
2023/12/08 11:02:43;;;;;;;2.28;0.75;;;6.50;99.90;;;;;;5114802;28;21042;-60
2023/12/08 11:05:13;;;;;;;1.40;0.80;;;6.50;99.90;;;;;;5113419;27;20462;-60
2023/12/08 11:07:43;;;;;;;2.40;0.80;;;6.50;99.90;;;;;;5115359;28;20981;-60
2023/12/08 11:10:13;;;;;;;1.43;0.73;;;6.60;99.90;;;;;;5114475;28;20463;-66
2023/12/08 11:12:47;;;;;;;1.40;0.90;;;6.60;99.90;;;;;;5112824;28;20412;-58
2023/12/08 11:15:20;;;;;;;1.50;0.75;;;6.70;99.90;;;;;;5112031;28;20435;-59
2023/12/08 11:17:53;;;;;;;1.17;0.60;;;6.80;99.90;;;;;;5114085;28;20435;-58
2023/12/08 11:20:21;;;;;;;1.40;0.70;;;6.80;99.90;;;;;;5113171;28;20901;-59
2023/12/08 11:22:49;;;;;;;1.98;0.70;;;6.80;99.90;;;;;;5112248;28;20440;-59
2023/12/08 11:25:22;;;;;;;1.50;0.80;;;6.80;99.90;;;;;;5111159;28;20427;-59
2023/12/08 11:27:57;;;;;;;1.20;0.70;;;6.80;99.90;;;;;;5110394;27;20850;-59
2023/12/08 11:30:30;;;;;;;1.60;0.80;;;6.90;99.90;;;;;;5112574;27;20484;-59
2023/12/08 11:33:18;;;;;;;1.70;0.80;;;6.90;99.90;;;;;;5114702;27;20506;-57
2023/12/08 11:35:50;;;;;;;1.52;0.70;;;7.00;99.90;;;;;;5102247;28;20928;-59
2023/12/08 11:38:27;;;;;;;1.55;0.80;;;7.00;99.90;;;;;;5114744;28;20827;-59
2023/12/08 11:40:55;;;;;;;1.27;0.80;;;7.00;99.90;;;;;;5106883;28;20528;-60
2023/12/08 11:43:22;;;;;;;1.58;0.70;;;7.10;99.90;;;;;;5104917;28;20428;-59
2023/12/08 11:45:52;;;;;;;2.33;0.80;;;7.20;99.90;;;;;;5106322;28;20851;-59
2023/12/08 11:48:21;;;;;;;1.30;0.80;;;7.20;99.90;;;;;;5112770;28;20884;-57
2023/12/08 11:50:48;;;;;;;1.90;0.80;;;7.20;97.80;;;;;;5103954;28;20475;-57
2023/12/08 11:53:15;;;;;;;1.80;0.70;;;7.30;99.90;;;;;;5112727;28;20435;-58
2023/12/08 11:55:43;;;;;;;1.20;0.60;;;7.30;94.40;;;;;;5109909;28;20428;-58
2023/12/08 11:58:11;;;;;;;1.08;0.60;;;7.40;93.60;;;;;;5111735;28;20424;-58
2023/12/08 12:03:28;;;;;;;1.10;0.60;;;7.60;70.70;;;;;;5095055;28;20609;-58
2023/12/08 12:05:56;;;;;;;1.00;0.60;;;7.60;54.10;;;;;;5108309;28;20522;-58
2023/12/08 12:08:29;;;;;;;1.20;0.60;;;7.60;44.30;;;;;;5110372;28;20436;-58
2023/12/08 12:11:02;;;;;;;1.60;0.60;;;7.60;47.90;;;;;;5100481;28;20420;-58
2023/12/08 12:13:32;;;;;;;1.00;0.55;;;7.70;36.70;;;;;;5110311;28;20424;-58
2023/12/08 12:15:59;;;;;;;1.20;0.60;;;7.70;43.20;;;;;;5108833;28;20416;-58
2023/12/08 12:18:30;;;;;;;0.98;0.60;;;7.70;46.50;;;;;;5109271;28;20782;-58
2023/12/08 12:20:57;;;;;;;1.38;0.50;;;7.70;38.30;;;;;;5112128;28;20481;-58
2023/12/08 12:23:24;;;;;;;0.80;0.40;;;7.80;31.00;;;;;;5103518;28;20441;-58
2023/12/08 12:25:51;;;;;;;1.13;0.50;;;7.90;27.70;;;;;;5108464;28;20481;-58
2023/12/08 12:28:18;;;;;;;0.80;0.40;;;7.90;23.00;;;;;;5107952;28;20436;-58
2023/12/08 12:30:48;;;;;;;1.00;0.50;;;8.00;16.70;;;;;;5110998;28;20496;-58
2023/12/08 12:33:15;;;;;;;0.70;0.40;;;8.00;13.30;;;;;;5111106;28;20439;-58
2023/12/08 12:35:44;;;;;;;0.70;0.40;;;7.90;6.90;;;;;;5107045;28;20427;-59
2023/12/08 12:38:13;;;;;;;1.10;0.50;;;7.90;7.50;;;;;;5111349;28;20478;-58
2023/12/08 12:40:40;;;;;;;1.30;0.50;;;7.90;1.00;;;;;;5108214;28;20428;-58
2023/12/08 12:43:07;;;;;;;0.80;0.40;;;7.90;7.20;;;;;;5110741;28;20416;-58
2023/12/08 12:45:35;;;;;;;0.70;0.40;;;7.90;16.30;;;;;;5104271;28;20502;-58
2023/12/08 12:48:04;;;;;;;0.70;0.40;;;7.90;12.00;;;;;;5110789;28;20522;-59
2023/12/08 12:50:33;;;;;;;1.00;0.50;;;8.00;10.40;;;;;;5109168;28;20461;-58
2023/12/08 12:53:05;;;;;;;0.70;0.47;;;8.00;9.50;;;;;;5108745;28;20945;-57
2023/12/08 12:55:32;;;;;;;0.75;0.40;;;8.00;13.90;;;;;;5099919;28;20425;-58
2023/12/08 12:57:59;;;;;;;0.73;0.50;;;7.90;13.30;;;;;;5099650;28;20414;-58
2023/12/08 13:00:32;;;;;;;0.70;0.40;;;7.90;18.80;;;;;;5111478;28;20420;-58
2023/12/08 13:03:06;;;;;;;1.33;0.50;;;7.90;16.50;;;;;;5109025;28;20430;-59
2023/12/08 13:05:33;;;;;;;1.10;0.50;;;7.90;19.80;;;;;;5107552;28;20485;-59